Vila Real, Portugal

2:18 AM WEST on August 27, 2016 (GMT +0100)
Moimenta Da Beira | | Change Station

Elev 2116 ft 40.98 °N, 7.61 °W | Updated 3 minutes ago

Fog
Fog
67.2 °F
Feels Like 67.2 °F
N
0.0
Wind Variable Wind from SW
Gusts 0.0 mph

Today
High -- | Low -- °F
--% Chance of Precip.
Yesterday
High -- | Low -- °F
Precip. -- in
Pressure 29.98 in
Visibility 0.4 miles
Clouds Mostly Cloudy 100 ft
Dew Point 56 °F
Humidity 67%
Rainfall 0.00 in
Snow Depth Not available.
6:52 AM 8:11 PM
Waning Crescent, 29% visible
METAR LPPR 270100Z 28003KT 0600 FG BKN001 16/16 Q1015
Pressure 29.98 in
Visibility 0.4 miles
Clouds Mostly Cloudy 100 ft
Dew Point 56 °F
Humidity 67%
Rainfall 0.00 in
Snow Depth Not available.
6:52 AM 8:11 PM
Waning Crescent, 29% visible
METAR LPPR 270100Z 28003KT 0600 FG BKN001 16/16 Q1015

10-Day Weather Forecast

×

Almanac

Astronomy

Aug. 27, 2016 Rise Set
Actual Time
Civil Twilight
Nautical Twilight
Astronomical Twilight
Moon
Length of Visible Light
Length of Day
Tomorrow will be .
, % of the Moon is Illuminated

Today's Extremes

Country Highs Country Lows

Community

WunderPhotos

Upload Photos

1,935,261 photos uploaded!

WunderBlog® & News

Nearby

Air Quality

  Air Quality AQ Index Pollutant
Not available.

Snow Depth

Station Depth Elevation

Earthquake Activity

City Distance Mag. Time & Date
Minimum magnitude displayed is 2.5.

Coastal Water Temperatures

Place Temperature

Stations

Nearby Weather Stations

Station Location Temp. Windchill Dew Point Humidity Wind Precip. Elev Updated Type